createdAt,value
2022-12-08T00:01:38.942Z,4.93
2022-12-08T00:07:00.908Z,4.85
2022-12-08T00:09:38.228Z,4.78
2022-12-08T00:12:16.678Z,4.35
2022-12-08T00:14:44.610Z,4.35
2022-12-08T00:17:08.399Z,4.32
2022-12-08T00:19:31.247Z,4.05
2022-12-08T00:22:39.486Z,4.20
2022-12-08T00:27:55.547Z,4.43
2022-12-08T00:30:21.659Z,4.20
2022-12-08T00:32:44.094Z,3.92
2022-12-08T00:35:11.267Z,3.88
2022-12-08T00:37:35.876Z,4.75
2022-12-08T00:39:59.276Z,3.58
2022-12-08T00:42:22.571Z,3.75
2022-12-08T00:47:09.192Z,5.03
2022-12-08T00:49:32.804Z,3.92
2022-12-08T00:52:00.742Z,4.30
2022-12-08T00:54:23.861Z,4.30
2022-12-08T00:56:48.576Z,3.88
2022-12-08T00:59:12.768Z,5.15
2022-12-08T01:01:39.779Z,4.40
2022-12-08T01:04:12.175Z,4.15
2022-12-08T01:06:38.920Z,4.22
2022-12-08T01:09:03.660Z,4.47
2022-12-08T01:11:30.153Z,3.83
2022-12-08T01:13:53.011Z,3.88
2022-12-08T01:16:28.236Z,4.07
2022-12-08T01:18:50.786Z,4.18
2022-12-08T01:21:13.285Z,3.97
2022-12-08T01:23:39.863Z,4.03
2022-12-08T01:26:04.412Z,3.72
2022-12-08T01:28:26.956Z,3.75
2022-12-08T01:30:50.224Z,3.88
2022-12-08T01:33:12.585Z,4.22
2022-12-08T01:35:35.609Z,4.45
2022-12-08T01:37:58.258Z,4.15
2022-12-08T01:40:20.586Z,4.00
2022-12-08T01:42:43.038Z,4.18
2022-12-08T01:45:12.114Z,4.18
2022-12-08T01:47:42.403Z,3.85
2022-12-08T01:50:06.926Z,4.80
2022-12-08T01:52:42.000Z,4.20
2022-12-08T01:55:18.213Z,3.15
2022-12-08T01:57:52.199Z,3.42
2022-12-08T02:00:17.172Z,4.25
2022-12-08T02:02:59.199Z,4.07
2022-12-08T02:05:23.688Z,3.78
2022-12-08T02:07:48.136Z,3.75
2022-12-08T02:10:12.153Z,4.00
2022-12-08T02:12:34.584Z,4.07
2022-12-08T02:15:00.551Z,4.05
2022-12-08T02:17:50.358Z,4.05
2022-12-08T02:23:23.865Z,4.03
2022-12-08T02:27:00.728Z,3.75
2022-12-08T02:29:59.551Z,3.67
2022-12-08T02:32:41.650Z,3.90
2022-12-08T02:35:52.118Z,3.92
2022-12-08T02:39:16.461Z,4.22
2022-12-08T02:42:20.287Z,3.95
2022-12-08T02:45:06.641Z,4.07
2022-12-08T02:47:28.987Z,3.97
2022-12-08T02:49:51.411Z,4.10
2022-12-08T02:52:13.681Z,3.90
2022-12-08T02:54:36.034Z,4.18
2022-12-08T02:57:27.033Z,4.00
2022-12-08T03:00:07.868Z,4.07
2022-12-08T03:02:57.849Z,4.07
2022-12-08T03:05:30.457Z,3.58
2022-12-08T03:08:19.061Z,3.47
2022-12-08T03:10:56.476Z,4.13
2022-12-08T03:13:30.915Z,3.40
2022-12-08T03:15:53.272Z,4.00
2022-12-08T03:18:16.618Z,3.58
2022-12-08T03:20:39.005Z,3.58
2022-12-08T03:23:02.325Z,3.63
2022-12-08T03:25:28.811Z,3.35
2022-12-08T03:27:51.165Z,3.42
2022-12-08T03:30:13.507Z,3.30
2022-12-08T03:33:14.860Z,3.50
2022-12-08T03:35:37.386Z,3.47
2022-12-08T03:38:05.529Z,3.25
2022-12-08T03:40:27.808Z,3.00
2022-12-08T03:42:53.658Z,2.80
2022-12-08T03:45:16.222Z,3.05
2022-12-08T03:47:39.305Z,3.40
2022-12-08T03:50:02.177Z,3.22
2022-12-08T03:52:25.121Z,2.67
2022-12-08T03:57:53.890Z,2.85
2022-12-08T04:03:08.991Z,3.42
2022-12-08T04:05:31.400Z,3.08
2022-12-08T04:07:57.938Z,3.58
2022-12-08T04:10:20.349Z,2.95
2022-12-08T04:12:42.638Z,3.10
2022-12-08T04:15:05.697Z,3.17
2022-12-08T04:17:28.099Z,2.95
2022-12-08T04:19:52.928Z,3.63
2022-12-08T04:22:16.810Z,3.00
2022-12-08T04:24:40.979Z,3.80
2022-12-08T04:27:03.429Z,2.90
2022-12-08T04:29:25.739Z,3.08
2022-12-08T04:31:49.612Z,3.13
2022-12-08T04:34:12.013Z,3.30
2022-12-08T04:36:34.504Z,3.25
2022-12-08T04:38:56.941Z,3.05
2022-12-08T04:41:19.283Z,3.10
2022-12-08T04:43:48.642Z,3.38
2022-12-08T04:46:12.395Z,2.92
2022-12-08T04:48:36.587Z,3.30
2022-12-08T04:51:02.330Z,3.20
2022-12-08T04:53:26.762Z,3.70
2022-12-08T04:55:53.715Z,3.83
2022-12-08T04:58:18.118Z,3.15
2022-12-08T05:00:46.329Z,3.08
2022-12-08T05:03:12.742Z,3.53
2022-12-08T05:05:56.717Z,2.97
2022-12-08T05:08:26.050Z,3.50
2022-12-08T05:11:09.635Z,3.30
2022-12-08T05:13:36.559Z,3.75
2022-12-08T05:16:10.476Z,3.38
2022-12-08T05:18:33.930Z,3.40
2022-12-08T05:21:06.611Z,3.33
2022-12-08T05:23:29.949Z,3.08
2022-12-08T05:26:02.419Z,2.95
2022-12-08T05:28:44.217Z,3.65
2022-12-08T05:31:09.303Z,3.08
2022-12-08T05:33:36.129Z,3.00
2022-12-08T05:35:59.624Z,3.15
2022-12-08T05:38:22.052Z,3.63
2022-12-08T05:40:45.709Z,3.58
2022-12-08T05:43:08.622Z,4.25
2022-12-08T05:45:35.242Z,3.47
2022-12-08T05:48:00.881Z,7.70
2022-12-08T05:50:23.204Z,12.75
2022-12-08T05:52:50.132Z,5.90
2022-12-08T05:55:12.669Z,3.88
2022-12-08T05:57:36.444Z,5.63
2022-12-08T06:00:00.023Z,4.07
2022-12-08T06:02:22.886Z,7.25
2022-12-08T06:04:46.773Z,7.03
2022-12-08T06:07:14.570Z,5.57
2022-12-08T06:09:44.694Z,5.50
2022-12-08T06:12:07.168Z,5.50
2022-12-08T06:14:44.900Z,5.65
2022-12-08T06:17:07.478Z,5.47
2022-12-08T06:19:30.208Z,5.75
2022-12-08T06:21:53.024Z,5.15
2022-12-08T06:24:15.662Z,7.63
2022-12-08T06:26:41.458Z,5.43
2022-12-08T06:29:05.915Z,8.55
2022-12-08T06:31:28.749Z,6.90
2022-12-08T06:33:51.185Z,5.63
2022-12-08T06:36:15.243Z,5.38
2022-12-08T06:38:42.930Z,8.52
2022-12-08T06:41:06.889Z,6.70
2022-12-08T06:43:30.694Z,6.47
2022-12-08T06:45:53.241Z,7.20
2022-12-08T06:48:19.640Z,6.10
2022-12-08T06:50:42.316Z,5.68
2022-12-08T06:53:05.812Z,5.93
2022-12-08T06:55:59.093Z,5.40
2022-12-08T06:58:13.215Z,5.47
2022-12-08T07:00:35.548Z,5.13
2022-12-08T07:02:57.894Z,5.57
2022-12-08T07:05:20.495Z,6.40
2022-12-08T07:07:42.835Z,6.13
2022-12-08T07:10:06.466Z,5.68
2022-12-08T07:12:29.113Z,5.55
2022-12-08T07:18:00.615Z,6.65
2022-12-08T07:20:23.153Z,5.70
2022-12-08T07:22:55.389Z,6.80
2022-12-08T07:25:18.805Z,7.38
2022-12-08T07:27:48.166Z,6.70
2022-12-08T07:30:10.982Z,5.93
2022-12-08T07:35:23.102Z,6.32
2022-12-08T07:37:46.615Z,7.97
2022-12-08T07:40:15.258Z,9.73
2022-12-08T07:42:37.891Z,7.75
2022-12-08T07:45:01.774Z,6.50
2022-12-08T07:47:24.500Z,6.63
2022-12-08T07:49:47.765Z,6.95
2022-12-08T07:52:10.328Z,6.93
2022-12-08T07:54:34.253Z,6.60
2022-12-08T07:56:58.232Z,6.40
2022-12-08T07:59:20.723Z,6.18
2022-12-08T08:01:45.510Z,7.80
2022-12-08T08:04:08.053Z,9.02
2022-12-08T08:06:31.974Z,8.32
2022-12-08T08:08:54.659Z,9.40
2022-12-08T08:11:21.301Z,8.65
2022-12-08T08:13:44.044Z,10.00
2022-12-08T08:16:08.569Z,11.02
2022-12-08T08:18:30.912Z,9.82
2022-12-08T08:20:53.243Z,11.15
2022-12-08T08:23:15.545Z,10.35
2022-12-08T08:25:37.894Z,10.02
2022-12-08T08:28:00.205Z,9.75
2022-12-08T08:30:23.989Z,9.98
2022-12-08T08:32:46.285Z,9.32
2022-12-08T08:35:09.235Z,8.10
2022-12-08T08:37:31.811Z,8.45
2022-12-08T08:39:54.214Z,9.90
2022-12-08T08:42:16.587Z,8.98
2022-12-08T08:44:39.189Z,9.48
2022-12-08T08:47:01.551Z,10.70
2022-12-08T08:49:23.958Z,10.43
2022-12-08T08:51:46.521Z,11.20
2022-12-08T08:54:08.867Z,9.63
2022-12-08T08:56:31.343Z,10.30
2022-12-08T08:58:54.029Z,11.02
2022-12-08T09:01:22.157Z,10.85
2022-12-08T09:03:45.073Z,10.18
2022-12-08T09:06:07.481Z,10.60
2022-12-08T09:08:29.983Z,9.48
2022-12-08T09:10:52.373Z,9.57
2022-12-08T09:13:14.721Z,10.70
2022-12-08T09:15:37.301Z,9.63
2022-12-08T09:17:59.746Z,9.70
2022-12-08T09:20:22.073Z,10.27
2022-12-08T09:22:44.441Z,10.25
2022-12-08T09:25:07.053Z,11.00
2022-12-08T09:27:29.361Z,12.48
2022-12-08T09:29:51.700Z,12.87
2022-12-08T09:32:14.075Z,13.88
2022-12-08T09:34:36.452Z,14.05
2022-12-08T09:36:58.771Z,13.73
2022-12-08T09:39:21.099Z,14.30
2022-12-08T09:41:48.508Z,15.15
2022-12-08T09:44:59.796Z,13.30
2022-12-08T09:47:35.479Z,14.65
2022-12-08T09:50:14.853Z,14.57
2022-12-08T09:52:45.290Z,13.73
2022-12-08T09:55:40.778Z,14.60
2022-12-08T09:58:03.488Z,15.55
2022-12-08T10:00:25.876Z,16.15
2022-12-08T10:02:48.307Z,16.38
2022-12-08T10:05:13.762Z,16.58
2022-12-08T10:08:06.518Z,17.30
2022-12-08T10:10:38.959Z,17.33
2022-12-08T10:13:08.745Z,16.90
2022-12-08T10:15:34.875Z,17.98
2022-12-08T10:17:57.894Z,17.05
2022-12-08T10:20:26.081Z,16.48
2022-12-08T10:23:02.705Z,15.85
2022-12-08T10:25:46.726Z,16.42
2022-12-08T10:37:12.816Z,18.27
2022-12-08T10:39:43.948Z,19.23
2022-12-08T10:42:17.477Z,21.05
2022-12-08T10:47:14.235Z,21.65
2022-12-08T10:49:38.717Z,20.85
2022-12-08T10:52:01.009Z,21.15
2022-12-08T10:54:33.459Z,23.10
2022-12-08T10:56:56.906Z,21.55
2022-12-08T10:59:19.678Z,22.35
2022-12-08T11:01:46.817Z,23.48
2022-12-08T11:04:17.636Z,24.58
2022-12-08T11:06:40.200Z,24.33
2022-12-08T11:09:17.745Z,24.30
2022-12-08T11:11:52.154Z,23.20
2022-12-08T11:14:32.266Z,24.13
2022-12-08T11:17:02.485Z,23.83
2022-12-08T11:19:27.867Z,23.33
2022-12-08T11:21:50.176Z,24.48
2022-12-08T11:24:15.388Z,23.77
2022-12-08T11:26:37.717Z,22.70
2022-12-08T11:29:00.057Z,24.47
2022-12-08T11:31:34.734Z,25.52
2022-12-08T11:33:57.237Z,23.95
2022-12-08T11:36:19.511Z,24.35
2022-12-08T11:38:44.571Z,24.53
2022-12-08T11:41:16.534Z,23.58
2022-12-08T11:44:22.497Z,23.40
2022-12-08T11:46:50.910Z,25.55
2022-12-08T11:49:14.247Z,22.98
2022-12-08T11:52:12.149Z,21.38
2022-12-08T11:54:51.219Z,22.05
2022-12-08T11:57:16.636Z,20.48
2022-12-08T11:59:46.240Z,23.83
2022-12-08T12:02:15.080Z,21.23
2022-12-08T12:05:08.137Z,22.88
2022-12-08T12:08:21.231Z,21.38
2022-12-08T12:11:42.754Z,23.27
2022-12-08T12:14:52.828Z,23.02
2022-12-08T12:18:01.619Z,22.50
2022-12-08T12:20:42.243Z,21.92
2022-12-08T12:23:41.658Z,26.42
2022-12-08T12:26:09.947Z,24.10
2022-12-08T12:29:02.633Z,24.50
2022-12-08T12:31:48.856Z,25.05
2022-12-08T12:34:19.440Z,24.60
2022-12-08T12:37:04.250Z,24.42
2022-12-08T12:39:29.683Z,25.60
2022-12-08T12:41:58.213Z,26.05
2022-12-08T12:44:29.160Z,26.67
2022-12-08T12:46:51.550Z,25.42
2022-12-08T12:49:43.868Z,26.38
2022-12-08T12:52:24.076Z,25.45
2022-12-08T12:55:09.003Z,25.02
2022-12-08T12:57:37.672Z,25.67
2022-12-08T12:59:59.859Z,25.08
2022-12-08T13:02:27.952Z,23.73
2022-12-08T13:05:22.654Z,24.50
2022-12-08T13:07:56.341Z,25.67
2022-12-08T13:10:26.145Z,25.95
2022-12-08T13:13:10.715Z,25.98
2022-12-08T13:15:41.695Z,26.00
2022-12-08T13:18:04.596Z,26.38
2022-12-08T13:20:26.902Z,27.10
2022-12-08T13:23:02.413Z,24.77
2022-12-08T13:25:40.037Z,25.33
2022-12-08T13:28:14.027Z,23.48
2022-12-08T13:30:46.335Z,25.02
2022-12-08T13:33:39.878Z,25.42
2022-12-08T13:36:14.844Z,24.83
2022-12-08T13:38:37.766Z,23.30
2022-12-08T13:41:01.758Z,24.17
2022-12-08T13:43:45.079Z,24.13
2022-12-08T13:46:57.913Z,22.63
2022-12-08T13:50:30.728Z,23.80
2022-12-08T13:53:35.059Z,23.55
2022-12-08T13:55:26.863Z,21.60
2022-12-08T13:57:33.774Z,25.75
2022-12-08T14:00:21.348Z,24.85
2022-12-08T14:02:48.862Z,22.77
2022-12-08T14:05:20.333Z,26.52
2022-12-08T14:07:47.460Z,22.45
2022-12-08T14:10:16.587Z,21.75
2022-12-08T14:12:38.923Z,21.92
2022-12-08T14:15:04.770Z,21.77
2022-12-08T14:17:27.415Z,22.10
2022-12-08T14:20:02.344Z,21.60
2022-12-08T14:22:25.048Z,20.45
2022-12-08T14:24:52.194Z,22.30
2022-12-08T14:27:17.729Z,23.48
2022-12-08T14:29:51.154Z,21.98
2022-12-08T14:32:26.821Z,21.73
2022-12-08T14:34:58.449Z,21.65
2022-12-08T14:37:20.780Z,22.00
2022-12-08T14:39:43.121Z,19.73
2022-12-08T14:42:05.828Z,22.27
2022-12-08T14:44:31.409Z,21.58
2022-12-08T14:47:08.348Z,22.52
2022-12-08T14:49:35.875Z,21.70
2022-12-08T14:51:58.208Z,22.00
2022-12-08T14:54:20.552Z,23.10
2022-12-08T14:56:53.239Z,21.95
2022-12-08T14:59:35.564Z,21.57
2022-12-08T15:02:26.524Z,22.70
2022-12-08T15:04:54.860Z,21.80
2022-12-08T15:07:22.858Z,21.75
2022-12-08T15:09:50.856Z,22.25
2022-12-08T15:12:13.067Z,21.45
2022-12-08T15:14:37.565Z,22.73
2022-12-08T15:17:00.035Z,21.95
2022-12-08T15:19:33.419Z,22.92
2022-12-08T15:22:12.142Z,24.90
2022-12-08T15:24:35.671Z,23.55
2022-12-08T15:26:58.032Z,22.05
2022-12-08T15:29:23.881Z,24.10
2022-12-08T15:31:46.288Z,24.05
2022-12-08T15:34:08.688Z,23.48
2022-12-08T15:36:30.980Z,24.90
2022-12-08T15:38:53.300Z,24.67
2022-12-08T15:41:15.618Z,23.92
2022-12-08T15:43:37.956Z,24.33
2022-12-08T15:46:00.667Z,25.90
2022-12-08T15:48:26.955Z,24.48
2022-12-08T15:50:49.554Z,25.48
2022-12-08T15:53:11.951Z,25.13
2022-12-08T15:55:38.834Z,23.98
2022-12-08T15:58:51.829Z,24.83
2022-12-08T16:00:52.306Z,24.60
2022-12-08T16:04:19.827Z,24.98
2022-12-08T16:09:11.737Z,22.35
2022-12-08T16:12:10.398Z,22.50
2022-12-08T16:15:46.721Z,21.90
2022-12-08T16:17:16.694Z,23.02
2022-12-08T16:19:39.028Z,22.27
2022-12-08T16:24:43.796Z,24.80
2022-12-08T16:29:48.419Z,23.77
2022-12-08T16:32:10.877Z,24.40
2022-12-08T16:34:33.322Z,25.08
2022-12-08T16:36:55.702Z,23.88
2022-12-08T16:39:18.071Z,24.95
2022-12-08T16:41:59.389Z,24.45
2022-12-08T16:44:21.719Z,22.83
2022-12-08T16:46:44.084Z,25.27
2022-12-08T16:49:08.237Z,24.50
2022-12-08T16:51:30.568Z,24.52
2022-12-08T16:53:52.947Z,24.67
2022-12-08T16:56:20.057Z,23.83
2022-12-08T16:58:42.403Z,24.40
2022-12-08T17:01:04.760Z,23.23
2022-12-08T17:03:27.262Z,24.73
2022-12-08T17:05:49.565Z,24.88
2022-12-08T17:08:13.283Z,24.03
2022-12-08T17:10:39.394Z,24.63
2022-12-08T17:13:02.337Z,25.20
2022-12-08T17:15:25.715Z,24.92
2022-12-08T17:17:48.265Z,25.83
2022-12-08T17:20:40.443Z,25.25
2022-12-08T17:23:02.742Z,24.70
2022-12-08T17:25:26.526Z,24.20
2022-12-08T17:27:48.825Z,25.45
2022-12-08T17:30:15.051Z,25.10
2022-12-08T17:32:38.478Z,24.05
2022-12-08T17:35:00.809Z,24.38
2022-12-08T17:37:23.147Z,25.53
2022-12-08T17:39:45.659Z,25.08
2022-12-08T17:42:08.120Z,24.27
2022-12-08T17:44:31.000Z,25.55
2022-12-08T17:46:53.543Z,26.02
2022-12-08T17:49:23.994Z,24.60
2022-12-08T17:51:50.713Z,26.20
2022-12-08T17:54:13.054Z,24.75
2022-12-08T17:56:35.359Z,23.70
2022-12-08T17:58:57.722Z,24.33
2022-12-08T18:01:20.090Z,23.17
2022-12-08T18:03:42.452Z,24.80
2022-12-08T18:06:09.742Z,24.10
2022-12-08T18:08:32.110Z,24.30
2022-12-08T18:10:54.465Z,23.93
2022-12-08T18:13:16.812Z,24.02
2022-12-08T18:15:39.530Z,24.13
2022-12-08T18:18:01.890Z,22.15
2022-12-08T18:20:24.272Z,23.60
2022-12-08T18:22:46.582Z,23.73
2022-12-08T18:25:10.036Z,22.90
2022-12-08T18:27:32.752Z,24.77
2022-12-08T18:29:55.146Z,23.40
2022-12-08T18:32:17.500Z,21.83
2022-12-08T18:34:39.850Z,23.00
2022-12-08T18:37:03.599Z,23.85
2022-12-08T18:39:28.862Z,25.23
2022-12-08T18:41:52.190Z,23.60
2022-12-08T18:44:14.496Z,24.42
2022-12-08T18:46:36.897Z,23.65
2022-12-08T18:48:59.547Z,25.60
2022-12-08T18:51:23.611Z,24.15
2022-12-08T18:53:46.184Z,25.05
2022-12-08T18:56:08.725Z,25.58
2022-12-08T18:58:31.063Z,26.83
2022-12-08T19:00:53.367Z,23.80
2022-12-08T19:03:15.729Z,22.93
2022-12-08T19:05:38.385Z,24.23
2022-12-08T19:08:00.765Z,23.02
2022-12-08T19:10:23.114Z,22.33
2022-12-08T19:12:45.554Z,22.45
2022-12-08T19:15:09.070Z,22.02
2022-12-08T19:17:31.678Z,22.02
2022-12-08T19:19:54.025Z,22.48
2022-12-08T19:22:16.363Z,21.13
2022-12-08T19:24:38.787Z,22.55
2022-12-08T19:27:01.516Z,23.88
2022-12-08T19:29:23.869Z,22.92
2022-12-08T19:31:46.328Z,24.67
2022-12-08T19:34:09.863Z,24.77
2022-12-08T19:36:35.642Z,22.75
2022-12-08T19:39:17.280Z,26.67
2022-12-08T19:41:58.378Z,24.30
2022-12-08T19:44:46.408Z,25.55
2022-12-08T19:47:09.181Z,24.20
2022-12-08T19:49:31.833Z,25.88
2022-12-08T19:51:54.182Z,25.35
2022-12-08T19:54:16.472Z,26.20
2022-12-08T19:56:38.866Z,26.60
2022-12-08T19:59:01.198Z,25.73
2022-12-08T20:01:23.550Z,25.50
2022-12-08T20:03:45.960Z,25.58
2022-12-08T20:06:15.787Z,23.67
2022-12-08T20:08:38.191Z,25.13
2022-12-08T20:11:00.578Z,23.08
2022-12-08T20:13:40.913Z,24.17
2022-12-08T20:16:03.341Z,22.83
2022-12-08T20:18:25.877Z,22.60
2022-12-08T20:20:48.718Z,23.25
2022-12-08T20:23:11.136Z,22.90
2022-12-08T20:25:33.776Z,21.77
2022-12-08T20:27:56.250Z,22.17
2022-12-08T20:30:18.577Z,20.58
2022-12-08T20:32:40.893Z,20.70
2022-12-08T20:35:03.664Z,20.50
2022-12-08T20:37:26.277Z,20.88
2022-12-08T20:39:48.857Z,21.42
2022-12-08T20:42:14.387Z,22.70
2022-12-08T20:44:36.851Z,20.65
2022-12-08T20:46:59.201Z,21.98
2022-12-08T20:49:21.786Z,17.47
2022-12-08T20:51:44.582Z,18.85
2022-12-08T20:54:07.028Z,18.50
2022-12-08T20:56:31.342Z,18.25
2022-12-08T20:58:54.093Z,17.45
2022-12-08T21:01:19.136Z,18.25
2022-12-08T21:03:42.068Z,18.08
2022-12-08T21:06:05.057Z,18.45
2022-12-08T21:08:27.699Z,19.85
2022-12-08T21:10:57.357Z,16.95
2022-12-08T21:13:19.802Z,18.75
2022-12-08T21:15:46.560Z,18.80
2022-12-08T21:18:09.312Z,18.70
2022-12-08T21:20:31.824Z,22.60
2022-12-08T21:22:54.261Z,19.20
2022-12-08T21:25:16.865Z,21.33
2022-12-08T21:27:39.443Z,19.60
2022-12-08T21:30:01.861Z,20.10
2022-12-08T21:32:29.929Z,20.55
2022-12-08T21:34:53.023Z,24.92
2022-12-08T21:37:15.829Z,19.48
2022-12-08T21:39:38.852Z,18.35
2022-12-08T21:42:22.705Z,17.15
2022-12-08T21:44:45.606Z,16.15
2022-12-08T21:47:08.044Z,16.38
2022-12-08T21:49:30.576Z,16.30
2022-12-08T21:51:52.899Z,16.63
2022-12-08T21:54:18.968Z,16.63
2022-12-08T21:56:41.711Z,15.07
2022-12-08T21:59:04.194Z,17.35
2022-12-08T22:01:26.676Z,16.90
2022-12-08T22:03:49.300Z,17.60
2022-12-08T22:06:13.181Z,16.40
2022-12-08T22:08:35.922Z,16.33
2022-12-08T22:10:38.395Z,16.13
2022-12-08T22:12:40.870Z,17.27
2022-12-08T22:14:43.797Z,16.92
2022-12-08T22:16:46.005Z,17.60
2022-12-08T22:18:48.173Z,18.15
2022-12-08T22:20:50.352Z,17.27
2022-12-08T22:22:52.697Z,18.67
2022-12-08T22:24:54.798Z,19.38
2022-12-08T22:26:56.898Z,20.15
2022-12-08T22:28:59.190Z,19.55
2022-12-08T22:31:01.327Z,19.38
2022-12-08T22:33:03.616Z,20.33
2022-12-08T22:35:06.152Z,20.63
2022-12-08T22:37:08.211Z,22.77
2022-12-08T22:39:10.475Z,20.85
2022-12-08T22:41:12.938Z,20.27
2022-12-08T22:45:17.539Z,22.15
2022-12-08T22:47:38.352Z,21.02
2022-12-08T22:49:59.060Z,21.70
2022-12-08T22:52:21.428Z,21.17
2022-12-08T22:54:43.845Z,21.95
2022-12-08T22:57:06.197Z,23.63
2022-12-08T22:59:29.664Z,22.97
2022-12-08T23:01:53.978Z,22.35
2022-12-08T23:04:18.348Z,22.67
2022-12-08T23:06:40.974Z,24.00
2022-12-08T23:09:03.395Z,22.77
2022-12-08T23:11:28.720Z,24.20
2022-12-08T23:13:51.588Z,27.00
2022-12-08T23:16:14.397Z,31.70
2022-12-08T23:18:37.176Z,27.08
2022-12-08T23:21:06.986Z,23.75
2022-12-08T23:23:29.309Z,22.95
2022-12-08T23:25:51.630Z,24.60
2022-12-08T23:28:17.158Z,25.13
2022-12-08T23:30:42.693Z,25.48
2022-12-08T23:33:05.160Z,24.95
2022-12-08T23:35:27.874Z,26.17
2022-12-08T23:37:50.382Z,26.25
2022-12-08T23:40:12.979Z,24.65
2022-12-08T23:42:35.401Z,24.77
2022-12-08T23:44:58.040Z,23.92
2022-12-08T23:47:20.839Z,23.38
2022-12-08T23:49:43.324Z,22.85
2022-12-08T23:52:05.924Z,24.40
2022-12-08T23:54:28.327Z,25.00
2022-12-08T23:56:50.652Z,24.95
2022-12-08T23:59:13.016Z,24.10
